createdAt,value
2023-01-09T00:00:36.630Z,23.43
2023-01-09T00:01:16.817Z,23.45
2023-01-09T00:02:04.522Z,23.41
2023-01-09T00:02:47.379Z,23.39
2023-01-09T00:03:31.847Z,23.40
2023-01-09T00:04:17.264Z,23.40
2023-01-09T00:05:02.685Z,23.40
2023-01-09T00:05:46.358Z,23.38
2023-01-09T00:06:28.529Z,23.41
2023-01-09T00:07:15.676Z,23.39
2023-01-09T00:08:00.571Z,23.41
2023-01-09T00:08:45.545Z,23.39
2023-01-09T00:09:29.424Z,23.37
2023-01-09T00:10:16.997Z,23.38
2023-01-09T00:11:03.985Z,23.36
2023-01-09T00:11:47.773Z,23.37
2023-01-09T00:12:31.673Z,23.39
2023-01-09T00:13:15.979Z,23.38
2023-01-09T00:14:01.362Z,23.37
2023-01-09T00:14:47.748Z,23.38
2023-01-09T00:15:36.186Z,23.40
2023-01-09T00:16:23.894Z,23.38
2023-01-09T00:17:09.027Z,23.41
2023-01-09T00:17:53.729Z,23.38
2023-01-09T00:18:38.817Z,23.37
2023-01-09T00:19:25.851Z,23.39
2023-01-09T00:20:10.794Z,23.35
2023-01-09T00:20:58.391Z,23.38
2023-01-09T00:21:43.202Z,23.36
2023-01-09T00:22:24.840Z,23.36
2023-01-09T00:23:11.710Z,23.34
2023-01-09T00:23:56.484Z,23.34
2023-01-09T00:24:41.514Z,23.33
2023-01-09T00:25:29.450Z,23.35
2023-01-09T00:26:14.198Z,23.36
2023-01-09T00:26:58.742Z,23.38
2023-01-09T00:27:41.469Z,23.38
2023-01-09T00:28:26.824Z,23.37
2023-01-09T00:29:12.331Z,23.35
2023-01-09T00:29:57.052Z,23.35
2023-01-09T00:30:48.678Z,23.36
2023-01-09T00:31:36.689Z,23.36
2023-01-09T00:32:21.730Z,23.36
2023-01-09T00:33:05.926Z,23.35
2023-01-09T00:33:48.962Z,23.36
2023-01-09T00:34:33.111Z,23.39
2023-01-09T00:35:17.398Z,23.38
2023-01-09T00:35:58.493Z,23.37
2023-01-09T00:36:43.354Z,23.37
2023-01-09T00:37:27.821Z,23.39
2023-01-09T00:38:15.444Z,23.37
2023-01-09T00:38:59.963Z,23.35
2023-01-09T00:39:47.874Z,23.38
2023-01-09T00:40:32.936Z,23.38
2023-01-09T00:41:18.583Z,23.37
2023-01-09T00:42:03.997Z,23.35
2023-01-09T00:42:51.165Z,23.35
2023-01-09T00:43:39.688Z,23.36
2023-01-09T00:44:25.056Z,23.36
2023-01-09T00:45:12.994Z,23.37
2023-01-09T00:46:00.452Z,23.36
2023-01-09T00:46:43.709Z,23.37
2023-01-09T00:47:29.849Z,23.39
2023-01-09T00:48:18.830Z,23.39
2023-01-09T00:49:06.834Z,23.38
2023-01-09T00:49:52.625Z,23.36
2023-01-09T00:50:38.347Z,23.37
2023-01-09T00:51:23.260Z,23.37
2023-01-09T00:52:05.779Z,23.38
2023-01-09T00:52:51.333Z,23.38
2023-01-09T00:53:39.365Z,23.35
2023-01-09T00:54:23.155Z,23.42
2023-01-09T00:55:07.749Z,23.38
2023-01-09T00:55:55.345Z,23.36
2023-01-09T00:56:38.584Z,23.38
2023-01-09T00:57:20.362Z,23.39
2023-01-09T00:58:06.697Z,23.41
2023-01-09T00:58:49.726Z,23.40
2023-01-09T00:59:34.167Z,23.40
2023-01-09T01:00:17.528Z,23.39
2023-01-09T01:01:01.386Z,23.39
2023-01-09T01:01:45.154Z,23.40
2023-01-09T01:02:27.788Z,23.38
2023-01-09T01:03:10.939Z,23.37
2023-01-09T01:03:56.532Z,23.40
2023-01-09T01:04:44.342Z,23.38
2023-01-09T01:05:30.854Z,23.38
2023-01-09T01:06:18.855Z,23.38
2023-01-09T01:07:05.567Z,23.39
2023-01-09T01:07:48.523Z,23.36
2023-01-09T01:08:33.498Z,23.38
2023-01-09T01:09:17.265Z,23.37
2023-01-09T01:10:01.609Z,23.37
2023-01-09T01:10:48.493Z,23.39
2023-01-09T01:11:32.866Z,23.38
2023-01-09T01:12:16.741Z,23.40
2023-01-09T01:13:00.099Z,23.36
2023-01-09T01:13:43.018Z,23.41
2023-01-09T01:14:27.515Z,23.38
2023-01-09T01:15:11.533Z,23.36
2023-01-09T01:15:54.207Z,23.39
2023-01-09T01:16:39.211Z,23.38
2023-01-09T01:17:23.546Z,23.39
2023-01-09T01:18:06.600Z,23.38
2023-01-09T01:18:51.224Z,23.40
2023-01-09T01:19:36.944Z,23.38
2023-01-09T01:20:21.303Z,23.39
2023-01-09T01:21:05.709Z,23.37
2023-01-09T01:21:53.529Z,23.35
2023-01-09T01:22:38.815Z,23.34
2023-01-09T01:23:22.000Z,23.34
2023-01-09T01:24:05.329Z,23.34
2023-01-09T01:24:49.640Z,23.38
2023-01-09T01:25:36.829Z,23.38
2023-01-09T01:26:22.063Z,23.35
2023-01-09T01:27:09.075Z,23.38
2023-01-09T01:27:54.782Z,23.35
2023-01-09T01:28:40.193Z,23.37
2023-01-09T01:29:27.270Z,23.37
2023-01-09T01:30:15.674Z,23.37
2023-01-09T01:31:03.270Z,23.39
2023-01-09T01:31:50.636Z,23.36
2023-01-09T01:32:39.188Z,23.37
2023-01-09T01:33:26.591Z,23.38
2023-01-09T01:34:09.019Z,23.37
2023-01-09T01:34:53.553Z,23.37
2023-01-09T01:35:37.646Z,23.37
2023-01-09T01:36:21.538Z,23.35
2023-01-09T01:37:05.781Z,23.37
2023-01-09T01:37:50.221Z,23.36
2023-01-09T01:38:38.180Z,23.36
2023-01-09T01:39:22.214Z,23.38
2023-01-09T01:40:07.388Z,23.39
2023-01-09T01:40:51.823Z,23.37
2023-01-09T01:41:35.478Z,23.35
2023-01-09T01:42:20.686Z,23.34
2023-01-09T01:43:07.609Z,23.35
2023-01-09T01:43:52.344Z,23.38
2023-01-09T01:44:36.573Z,23.36
2023-01-09T01:45:20.486Z,23.36
2023-01-09T01:46:05.462Z,23.35
2023-01-09T01:46:50.121Z,23.36
2023-01-09T01:47:35.870Z,23.36
2023-01-09T01:48:18.247Z,23.36
2023-01-09T01:49:03.276Z,23.36
2023-01-09T01:49:44.365Z,23.36
2023-01-09T01:50:48.295Z,23.36
2023-01-09T01:51:33.115Z,23.36
2023-01-09T01:52:17.601Z,23.35
2023-01-09T01:53:01.208Z,23.34
2023-01-09T01:53:45.967Z,23.33
2023-01-09T01:54:29.752Z,23.34
2023-01-09T01:55:11.769Z,23.34
2023-01-09T01:55:54.853Z,23.34
2023-01-09T01:56:39.687Z,23.37
2023-01-09T01:57:23.542Z,23.39
2023-01-09T01:58:06.570Z,23.36
2023-01-09T01:58:49.924Z,23.34
2023-01-09T01:59:35.082Z,23.36
2023-01-09T02:00:20.625Z,23.35
2023-01-09T02:01:04.603Z,23.36
2023-01-09T02:01:48.381Z,23.35
2023-01-09T02:02:33.437Z,23.41
2023-01-09T02:03:20.982Z,23.36
2023-01-09T02:04:08.549Z,23.40
2023-01-09T02:04:56.447Z,23.38
2023-01-09T02:05:38.972Z,23.36
2023-01-09T02:06:24.651Z,23.39
2023-01-09T02:07:10.587Z,23.38
2023-01-09T02:07:56.520Z,23.37
2023-01-09T02:08:45.135Z,23.37
2023-01-09T02:09:32.683Z,23.37
2023-01-09T02:10:18.043Z,23.35
2023-01-09T02:11:03.345Z,23.35
2023-01-09T02:11:48.731Z,23.34
2023-01-09T02:12:34.100Z,23.35
2023-01-09T02:13:21.934Z,23.37
2023-01-09T02:14:05.837Z,23.37
2023-01-09T02:14:50.753Z,23.37
2023-01-09T02:15:34.713Z,23.41
2023-01-09T02:16:15.705Z,23.38
2023-01-09T02:16:59.474Z,23.38
2023-01-09T02:17:44.715Z,23.38
2023-01-09T02:18:29.091Z,23.41
2023-01-09T02:19:13.271Z,23.38
2023-01-09T02:19:58.385Z,23.42
2023-01-09T02:20:46.381Z,23.38
2023-01-09T02:21:28.546Z,23.37
2023-01-09T02:22:13.928Z,23.38
2023-01-09T02:22:59.031Z,23.39
2023-01-09T02:23:44.573Z,23.41
2023-01-09T02:24:29.907Z,23.39
2023-01-09T02:25:14.401Z,23.40
2023-01-09T02:25:59.778Z,23.41
2023-01-09T02:26:44.748Z,23.43
2023-01-09T02:27:31.435Z,23.41
2023-01-09T02:28:16.479Z,23.40
2023-01-09T02:28:59.821Z,23.38
2023-01-09T02:29:41.881Z,23.38
2023-01-09T02:30:30.084Z,23.38
2023-01-09T02:31:17.079Z,23.40
2023-01-09T02:32:02.154Z,23.41
2023-01-09T02:32:51.735Z,23.38
2023-01-09T02:33:37.178Z,23.41
2023-01-09T02:34:25.019Z,23.41
2023-01-09T02:35:07.085Z,23.40
2023-01-09T02:35:55.055Z,23.44
2023-01-09T02:36:41.341Z,23.42
2023-01-09T02:37:28.453Z,23.44
2023-01-09T02:38:16.123Z,23.39
2023-01-09T02:39:00.898Z,23.38
2023-01-09T02:39:45.571Z,23.37
2023-01-09T02:40:26.947Z,23.39
2023-01-09T02:41:11.981Z,23.39
2023-01-09T02:41:55.051Z,23.42
2023-01-09T02:42:39.792Z,23.38
2023-01-09T02:43:25.444Z,23.41
2023-01-09T02:44:08.840Z,23.42
2023-01-09T02:44:53.841Z,23.40
2023-01-09T02:45:39.224Z,23.44
2023-01-09T02:46:23.557Z,23.47
2023-01-09T02:47:09.634Z,23.47
2023-01-09T02:47:57.119Z,23.41
2023-01-09T02:48:41.811Z,23.42
2023-01-09T02:49:27.007Z,23.41
2023-01-09T02:50:12.849Z,23.48
2023-01-09T02:50:55.613Z,23.41
2023-01-09T02:51:42.696Z,23.46
2023-01-09T02:52:29.457Z,23.44
2023-01-09T02:53:15.271Z,23.48
2023-01-09T02:54:01.962Z,23.44
2023-01-09T02:54:49.612Z,23.46
2023-01-09T02:55:33.153Z,23.44
2023-01-09T02:56:17.085Z,23.46
2023-01-09T02:57:01.642Z,23.46
2023-01-09T02:57:45.195Z,23.46
2023-01-09T02:58:30.241Z,23.42
2023-01-09T02:59:16.093Z,23.41
2023-01-09T02:59:59.785Z,23.44
2023-01-09T03:00:45.519Z,23.44
2023-01-09T03:01:28.546Z,23.41
2023-01-09T03:02:12.474Z,23.42
2023-01-09T03:02:56.885Z,23.47
2023-01-09T03:03:41.844Z,23.44
2023-01-09T03:04:25.580Z,23.48
2023-01-09T03:05:09.508Z,23.46
2023-01-09T03:05:53.483Z,23.45
2023-01-09T03:06:34.629Z,23.50
2023-01-09T03:07:19.935Z,23.46
2023-01-09T03:08:03.135Z,23.48
2023-01-09T03:08:48.000Z,23.44
2023-01-09T03:09:31.368Z,23.42
2023-01-09T03:10:15.185Z,23.44
2023-01-09T03:10:55.914Z,23.46
2023-01-09T03:11:42.637Z,23.49
2023-01-09T03:12:30.799Z,23.49
2023-01-09T03:13:14.532Z,23.48
2023-01-09T03:13:58.806Z,23.48
2023-01-09T03:14:43.815Z,23.47
2023-01-09T03:15:27.470Z,23.48
2023-01-09T03:16:09.297Z,23.51
2023-01-09T03:16:53.380Z,23.46
2023-01-09T03:17:37.965Z,23.49
2023-01-09T03:18:23.474Z,23.48
2023-01-09T03:19:08.136Z,23.45
2023-01-09T03:19:50.441Z,23.43
2023-01-09T03:20:47.556Z,23.44
2023-01-09T03:21:33.320Z,23.47
2023-01-09T03:22:18.986Z,23.43
2023-01-09T03:23:02.574Z,23.44
2023-01-09T03:23:46.900Z,23.43
2023-01-09T03:24:36.114Z,23.46
2023-01-09T03:25:24.579Z,23.43
2023-01-09T03:26:10.431Z,23.47
2023-01-09T03:26:55.498Z,23.44
2023-01-09T03:27:40.324Z,23.43
2023-01-09T03:28:25.557Z,23.46
2023-01-09T03:29:11.652Z,23.47
2023-01-09T03:29:59.662Z,23.46
2023-01-09T03:30:47.125Z,23.48
2023-01-09T03:31:34.343Z,23.46
2023-01-09T03:32:17.971Z,23.46
2023-01-09T03:33:02.680Z,23.46
2023-01-09T03:33:46.102Z,23.48
2023-01-09T03:34:30.992Z,23.48
2023-01-09T03:35:18.002Z,23.50
2023-01-09T03:36:01.578Z,23.53
2023-01-09T03:36:46.707Z,23.49
2023-01-09T03:37:31.662Z,23.50
2023-01-09T03:38:15.457Z,23.52
2023-01-09T03:39:00.201Z,23.49
2023-01-09T03:39:47.410Z,23.48
2023-01-09T03:40:29.834Z,23.45
2023-01-09T03:41:15.597Z,23.47
2023-01-09T03:42:00.414Z,23.47
2023-01-09T03:42:47.185Z,23.47
2023-01-09T03:43:31.587Z,23.44
2023-01-09T03:44:14.678Z,23.48
2023-01-09T03:45:02.378Z,23.46
2023-01-09T03:45:43.855Z,23.48
2023-01-09T03:46:31.127Z,23.46
2023-01-09T03:47:19.760Z,23.46
2023-01-09T03:48:07.544Z,23.48
2023-01-09T03:48:50.716Z,23.51
2023-01-09T03:49:38.287Z,23.51
2023-01-09T03:50:22.250Z,23.52
2023-01-09T03:51:07.366Z,23.49
2023-01-09T03:51:55.384Z,23.48
2023-01-09T03:52:40.733Z,23.51
2023-01-09T03:53:29.725Z,23.51
2023-01-09T03:54:12.801Z,23.48
2023-01-09T03:54:59.437Z,23.47
2023-01-09T03:55:46.408Z,23.49
2023-01-09T03:56:31.728Z,23.50
2023-01-09T03:57:17.297Z,23.50
2023-01-09T03:58:02.803Z,23.51
2023-01-09T03:58:48.661Z,23.51
2023-01-09T03:59:32.667Z,23.50
2023-01-09T04:00:17.516Z,23.51
2023-01-09T04:01:01.367Z,23.48
2023-01-09T04:01:46.912Z,23.49
2023-01-09T04:02:31.099Z,23.49
2023-01-09T04:03:15.127Z,23.46
2023-01-09T04:04:00.955Z,23.48
2023-01-09T04:04:42.189Z,23.49
2023-01-09T04:05:27.307Z,23.49
2023-01-09T04:06:14.823Z,23.54
2023-01-09T04:07:02.854Z,23.52
2023-01-09T04:07:51.478Z,23.51
2023-01-09T04:08:39.496Z,23.49
2023-01-09T04:09:25.190Z,23.51
2023-01-09T04:10:10.766Z,23.52
2023-01-09T04:10:55.813Z,23.52
2023-01-09T04:11:41.596Z,23.48
2023-01-09T04:12:29.123Z,23.52
2023-01-09T04:13:13.788Z,23.48
2023-01-09T04:14:01.208Z,23.48
2023-01-09T04:14:47.060Z,23.49
2023-01-09T04:15:30.613Z,23.48
2023-01-09T04:16:16.441Z,23.48
2023-01-09T04:17:02.227Z,23.45
2023-01-09T04:17:48.311Z,23.44
2023-01-09T04:18:36.631Z,23.49
2023-01-09T04:19:22.848Z,23.49
2023-01-09T04:20:09.524Z,23.46
2023-01-09T04:20:55.456Z,23.50
2023-01-09T04:21:39.578Z,23.47
2023-01-09T04:22:20.621Z,23.51
2023-01-09T04:23:07.353Z,23.50
2023-01-09T04:23:56.204Z,23.50
2023-01-09T04:24:43.274Z,23.47
2023-01-09T04:25:27.605Z,23.47
2023-01-09T04:26:11.089Z,23.50
2023-01-09T04:26:53.298Z,23.48
2023-01-09T04:27:39.078Z,23.51
2023-01-09T04:28:24.031Z,23.53
2023-01-09T04:29:08.232Z,23.55
2023-01-09T04:29:52.727Z,23.53
2023-01-09T04:30:37.234Z,23.50
2023-01-09T04:31:22.490Z,23.47
2023-01-09T04:32:09.307Z,23.49
2023-01-09T04:32:54.162Z,23.49
2023-01-09T04:33:39.472Z,23.46
2023-01-09T04:34:24.961Z,23.46
2023-01-09T04:35:12.157Z,23.49
2023-01-09T04:35:58.324Z,23.50
2023-01-09T04:36:46.093Z,23.48
2023-01-09T04:37:31.230Z,23.49
2023-01-09T04:38:19.549Z,23.50
2023-01-09T04:39:07.676Z,23.52
2023-01-09T04:39:53.022Z,23.47
2023-01-09T04:40:37.661Z,23.49
2023-01-09T04:41:22.651Z,23.47
2023-01-09T04:42:09.471Z,23.46
2023-01-09T04:42:53.127Z,23.43
2023-01-09T04:43:37.589Z,23.43
2023-01-09T04:44:21.025Z,23.43
2023-01-09T04:45:10.049Z,23.46
2023-01-09T04:45:53.865Z,23.49
2023-01-09T04:46:41.435Z,23.46
2023-01-09T04:47:26.328Z,23.50
2023-01-09T04:48:08.608Z,23.52
2023-01-09T04:48:56.593Z,23.49
2023-01-09T04:49:43.959Z,23.49
2023-01-09T04:50:29.024Z,23.48
2023-01-09T04:51:14.079Z,23.47
2023-01-09T04:51:58.568Z,23.46
2023-01-09T04:52:44.001Z,23.48
2023-01-09T04:53:29.930Z,23.49
2023-01-09T04:54:15.407Z,23.48
2023-01-09T04:55:00.042Z,23.45
2023-01-09T04:55:44.363Z,23.42
2023-01-09T04:56:31.057Z,23.47
2023-01-09T04:57:15.526Z,23.44
2023-01-09T04:58:00.088Z,23.46
2023-01-09T04:58:45.158Z,23.45
2023-01-09T04:59:29.064Z,23.45
2023-01-09T05:00:13.307Z,23.46
2023-01-09T05:01:00.606Z,23.44
2023-01-09T05:01:44.680Z,23.45
2023-01-09T05:02:28.541Z,23.42
2023-01-09T05:03:13.750Z,23.44
2023-01-09T05:03:55.830Z,23.44
2023-01-09T05:04:41.276Z,23.46
2023-01-09T05:05:28.474Z,23.44
2023-01-09T05:06:12.487Z,23.47
2023-01-09T05:06:57.105Z,23.49
2023-01-09T05:07:41.344Z,23.44
2023-01-09T05:08:25.850Z,23.42
2023-01-09T05:09:08.333Z,23.41
2023-01-09T05:09:53.436Z,23.40
2023-01-09T05:10:37.234Z,23.39
2023-01-09T05:11:21.743Z,23.44
2023-01-09T05:12:05.779Z,23.47
2023-01-09T05:12:49.396Z,23.44
2023-01-09T05:13:33.245Z,23.48
2023-01-09T05:14:14.651Z,23.46
2023-01-09T05:14:57.508Z,23.47
2023-01-09T05:15:50.304Z,23.47
2023-01-09T05:16:35.196Z,23.46
2023-01-09T05:17:20.662Z,23.48
2023-01-09T05:18:04.661Z,23.46
2023-01-09T05:18:50.578Z,23.46
2023-01-09T05:19:36.899Z,23.48
2023-01-09T05:20:22.092Z,23.49
2023-01-09T05:21:10.491Z,23.45
2023-01-09T05:21:58.092Z,23.46
2023-01-09T05:22:43.048Z,23.46
2023-01-09T05:23:30.689Z,23.47
2023-01-09T05:24:15.411Z,23.46
2023-01-09T05:25:00.278Z,23.43
2023-01-09T05:25:39.937Z,23.48
2023-01-09T05:26:28.971Z,23.45
2023-01-09T05:27:15.190Z,23.46
2023-01-09T05:28:02.553Z,23.48
2023-01-09T05:28:50.879Z,23.43
2023-01-09T05:29:36.336Z,23.49
2023-01-09T05:30:20.114Z,23.44
2023-01-09T05:31:01.304Z,23.46
2023-01-09T05:31:48.661Z,23.44
2023-01-09T05:32:35.544Z,23.47
2023-01-09T05:33:20.848Z,23.47
2023-01-09T05:34:08.428Z,23.46
2023-01-09T05:34:52.417Z,23.44
2023-01-09T05:35:36.511Z,23.41
2023-01-09T05:36:17.099Z,23.45
2023-01-09T05:37:02.651Z,23.45
2023-01-09T05:37:47.813Z,23.49
2023-01-09T05:38:31.817Z,23.50
2023-01-09T05:39:15.337Z,23.46
2023-01-09T05:39:59.001Z,23.48
2023-01-09T05:40:43.678Z,23.46
2023-01-09T05:41:26.670Z,23.49
2023-01-09T05:42:09.718Z,23.46
2023-01-09T05:42:52.229Z,23.46
2023-01-09T05:43:36.993Z,23.46
2023-01-09T05:44:20.377Z,23.43
2023-01-09T05:45:10.115Z,23.42
2023-01-09T05:45:53.351Z,23.46
2023-01-09T05:46:37.170Z,23.43
2023-01-09T05:47:21.721Z,23.42
2023-01-09T05:48:03.534Z,23.42
2023-01-09T05:48:46.988Z,23.45
2023-01-09T05:49:30.316Z,23.43
2023-01-09T05:50:13.936Z,23.43
2023-01-09T05:50:58.247Z,23.44
2023-01-09T05:51:43.125Z,23.44
2023-01-09T05:52:27.273Z,23.49
2023-01-09T05:53:09.466Z,23.44
2023-01-09T05:53:56.772Z,23.41
2023-01-09T05:54:42.135Z,23.40
2023-01-09T05:55:26.626Z,23.40
2023-01-09T05:56:11.676Z,23.40
2023-01-09T05:56:55.676Z,23.42
2023-01-09T05:57:43.821Z,23.40
2023-01-09T05:58:28.388Z,23.39
2023-01-09T05:59:12.975Z,23.40
2023-01-09T05:59:57.057Z,23.43
2023-01-09T06:00:43.788Z,23.41
2023-01-09T06:01:29.718Z,23.40
2023-01-09T06:02:14.848Z,23.43
2023-01-09T06:03:00.527Z,23.39
2023-01-09T06:03:45.839Z,23.42
2023-01-09T06:04:32.287Z,23.42
2023-01-09T06:05:18.986Z,23.40
2023-01-09T06:06:03.971Z,23.40
2023-01-09T06:06:47.927Z,23.41
2023-01-09T06:07:32.429Z,23.40
2023-01-09T06:08:18.198Z,23.43
2023-01-09T06:09:01.017Z,23.40
2023-01-09T06:09:43.083Z,23.41
2023-01-09T06:10:27.548Z,23.42
2023-01-09T06:11:11.907Z,23.42
2023-01-09T06:11:55.815Z,23.42
2023-01-09T06:12:41.218Z,23.38
2023-01-09T06:13:29.091Z,23.41
2023-01-09T06:14:11.372Z,23.41
2023-01-09T06:14:58.180Z,23.43
2023-01-09T06:15:57.632Z,23.39
2023-01-09T06:16:42.646Z,23.43
2023-01-09T06:17:27.923Z,23.44
2023-01-09T06:18:14.248Z,23.40
2023-01-09T06:19:02.133Z,23.43
2023-01-09T06:19:47.651Z,23.41
2023-01-09T06:20:29.913Z,23.40
2023-01-09T06:21:15.835Z,23.42
2023-01-09T06:22:00.500Z,23.40
2023-01-09T06:22:45.485Z,23.39
2023-01-09T06:23:30.334Z,23.39
2023-01-09T06:24:15.411Z,23.39
2023-01-09T06:25:04.151Z,23.39
2023-01-09T06:25:49.738Z,23.38
2023-01-09T06:26:31.863Z,23.41
2023-01-09T06:27:15.455Z,23.39
2023-01-09T06:27:59.112Z,23.39
2023-01-09T06:28:44.634Z,23.39
2023-01-09T06:29:28.271Z,23.40
2023-01-09T06:30:11.128Z,23.40
2023-01-09T06:30:52.923Z,23.39
2023-01-09T06:31:35.636Z,23.37
2023-01-09T06:32:20.485Z,23.40
2023-01-09T06:33:07.297Z,23.38
2023-01-09T06:33:50.767Z,23.39
2023-01-09T06:34:34.272Z,23.37
2023-01-09T06:35:18.146Z,23.38
2023-01-09T06:35:59.744Z,23.38
2023-01-09T06:36:48.037Z,23.38
2023-01-09T06:37:36.840Z,23.37
2023-01-09T06:38:22.155Z,23.35
2023-01-09T06:39:10.099Z,23.37
2023-01-09T06:39:53.931Z,23.39
2023-01-09T06:40:41.215Z,23.39
2023-01-09T06:41:26.098Z,23.42
2023-01-09T06:42:13.320Z,23.39
2023-01-09T06:42:58.992Z,23.42
2023-01-09T06:43:47.024Z,23.38
2023-01-09T06:44:35.150Z,23.39
2023-01-09T06:45:22.705Z,23.39
2023-01-09T06:46:07.302Z,23.37
2023-01-09T06:46:48.854Z,23.39
2023-01-09T06:47:32.620Z,23.36
2023-01-09T06:48:17.583Z,23.39
2023-01-09T06:49:01.272Z,23.42
2023-01-09T06:49:45.522Z,23.39
2023-01-09T06:50:28.953Z,23.40
2023-01-09T06:51:13.662Z,23.40
2023-01-09T06:51:55.869Z,23.38
2023-01-09T06:52:41.039Z,23.38
2023-01-09T06:53:25.306Z,23.37
2023-01-09T06:54:10.196Z,23.35
2023-01-09T06:54:54.091Z,23.36
2023-01-09T06:55:38.269Z,23.37
2023-01-09T06:56:23.070Z,23.36
2023-01-09T06:57:05.206Z,23.36
2023-01-09T06:57:49.801Z,23.35
2023-01-09T06:58:34.332Z,23.38
2023-01-09T06:59:19.652Z,23.40
2023-01-09T07:00:05.801Z,23.37
2023-01-09T07:00:50.176Z,23.37
2023-01-09T07:01:36.888Z,23.38
2023-01-09T07:02:19.587Z,23.35
2023-01-09T07:03:06.117Z,23.35
2023-01-09T07:03:53.642Z,23.36
2023-01-09T07:04:38.117Z,23.35
2023-01-09T07:05:22.024Z,23.35
2023-01-09T07:06:08.469Z,23.34
2023-01-09T07:06:54.061Z,23.38
2023-01-09T07:07:38.879Z,23.35
2023-01-09T07:08:22.000Z,23.35
2023-01-09T07:09:09.685Z,23.34
2023-01-09T07:09:54.350Z,23.34
2023-01-09T07:10:38.637Z,23.35
2023-01-09T07:11:23.735Z,23.37
2023-01-09T07:12:11.790Z,23.36
2023-01-09T07:12:57.235Z,23.35
2023-01-09T07:13:44.977Z,23.37
2023-01-09T07:14:30.558Z,23.37
2023-01-09T07:15:19.159Z,23.37
2023-01-09T07:16:06.801Z,23.38
2023-01-09T07:16:52.341Z,23.36
2023-01-09T07:17:40.566Z,23.39
2023-01-09T07:18:25.842Z,23.37
2023-01-09T07:19:10.381Z,23.36
2023-01-09T07:19:56.174Z,23.40
2023-01-09T07:20:44.539Z,23.37
2023-01-09T07:21:33.067Z,23.37
2023-01-09T07:22:20.284Z,23.38
2023-01-09T07:23:06.580Z,23.38
2023-01-09T07:23:52.021Z,23.36
2023-01-09T07:24:37.354Z,23.37
2023-01-09T07:25:25.672Z,23.38
2023-01-09T07:26:13.898Z,23.37
2023-01-09T07:27:01.684Z,23.37
2023-01-09T07:27:46.949Z,23.39
2023-01-09T07:28:32.502Z,23.37
2023-01-09T07:29:17.157Z,23.37
2023-01-09T07:29:58.936Z,23.38
2023-01-09T07:30:52.752Z,23.38
2023-01-09T07:31:41.324Z,23.41
2023-01-09T07:32:29.156Z,23.39
2023-01-09T07:33:17.851Z,23.39
2023-01-09T07:34:05.021Z,23.38
2023-01-09T07:34:45.971Z,23.36
2023-01-09T07:35:34.501Z,23.37
2023-01-09T07:36:18.528Z,23.37
2023-01-09T07:37:02.363Z,23.36
2023-01-09T07:37:49.233Z,23.34
2023-01-09T07:38:34.148Z,23.34
2023-01-09T07:39:18.539Z,23.35
2023-01-09T07:40:00.525Z,23.33
2023-01-09T07:40:46.051Z,23.33
2023-01-09T07:41:30.658Z,23.36
2023-01-09T07:42:18.638Z,23.36
2023-01-09T07:43:04.968Z,23.36
2023-01-09T07:43:52.455Z,23.36
2023-01-09T07:44:37.216Z,23.37
2023-01-09T07:45:19.859Z,23.37
2023-01-09T07:46:04.574Z,23.38
2023-01-09T07:46:48.579Z,23.34
2023-01-09T07:47:33.486Z,23.34
2023-01-09T07:48:19.407Z,23.35
2023-01-09T07:49:04.279Z,23.35
2023-01-09T07:49:48.307Z,23.33
2023-01-09T07:50:31.613Z,23.33
2023-01-09T07:51:14.199Z,23.35
2023-01-09T07:51:58.874Z,23.34
2023-01-09T07:52:46.839Z,23.35
2023-01-09T07:53:30.864Z,23.37
2023-01-09T07:54:14.715Z,23.34
2023-01-09T07:54:59.378Z,23.33
2023-01-09T07:55:41.164Z,23.35
2023-01-09T07:56:24.789Z,23.33
2023-01-09T07:57:10.297Z,23.32
2023-01-09T07:57:54.639Z,23.36
2023-01-09T07:58:38.662Z,23.36
2023-01-09T07:59:26.906Z,23.34
2023-01-09T08:00:15.146Z,23.33
2023-01-09T08:01:01.734Z,23.32
2023-01-09T08:01:48.006Z,23.35
2023-01-09T08:02:35.756Z,23.37
2023-01-09T08:03:21.086Z,23.33
2023-01-09T08:04:08.302Z,23.34
2023-01-09T08:04:54.105Z,23.35
2023-01-09T08:05:42.513Z,23.36
2023-01-09T08:06:25.456Z,23.34
2023-01-09T08:07:11.282Z,23.36
2023-01-09T08:07:59.594Z,23.33
2023-01-09T08:08:45.882Z,23.33
2023-01-09T08:09:34.066Z,23.30
2023-01-09T08:10:22.050Z,23.30
2023-01-09T08:11:10.341Z,23.32
2023-01-09T08:11:56.891Z,23.30
2023-01-09T08:12:39.800Z,23.29
2023-01-09T08:13:24.657Z,23.28
2023-01-09T08:14:11.107Z,23.28
2023-01-09T08:14:56.975Z,23.30
2023-01-09T08:15:54.422Z,23.32
2023-01-09T08:16:39.587Z,23.31
2023-01-09T08:17:20.976Z,23.32
2023-01-09T08:18:06.203Z,23.30
2023-01-09T08:18:54.504Z,23.29
2023-01-09T08:19:41.173Z,23.31
2023-01-09T08:20:25.280Z,23.30
2023-01-09T08:21:12.592Z,23.32
2023-01-09T08:21:58.771Z,23.30
2023-01-09T08:22:42.096Z,23.33
2023-01-09T08:23:27.731Z,23.33
2023-01-09T08:24:11.444Z,23.32
2023-01-09T08:24:55.563Z,23.30
2023-01-09T08:25:38.998Z,23.31
2023-01-09T08:26:22.784Z,23.32
2023-01-09T08:27:07.326Z,23.30
2023-01-09T08:27:48.658Z,23.31
2023-01-09T08:28:33.144Z,23.31
2023-01-09T08:29:21.264Z,23.31
2023-01-09T08:30:09.980Z,23.30
2023-01-09T08:30:54.353Z,23.29
2023-01-09T08:31:42.593Z,23.32
2023-01-09T08:32:30.069Z,23.29
2023-01-09T08:33:12.495Z,23.33
2023-01-09T08:33:57.380Z,23.32
2023-01-09T08:34:44.406Z,23.29
2023-01-09T08:35:30.349Z,23.29
2023-01-09T08:36:15.574Z,23.29
2023-01-09T08:37:02.724Z,23.31
2023-01-09T08:37:47.429Z,23.30
2023-01-09T08:38:32.096Z,23.33
2023-01-09T08:39:21.219Z,23.29
2023-01-09T08:40:08.862Z,23.33
2023-01-09T08:40:52.701Z,23.31
2023-01-09T08:41:37.583Z,23.34
2023-01-09T08:42:22.132Z,23.33
2023-01-09T08:43:07.121Z,23.33
2023-01-09T08:43:54.948Z,23.30
2023-01-09T08:44:40.690Z,23.30
2023-01-09T08:45:26.305Z,23.30
2023-01-09T08:46:08.673Z,23.30
2023-01-09T08:46:53.646Z,23.28
2023-01-09T08:47:37.742Z,23.30
2023-01-09T08:48:21.943Z,23.29
2023-01-09T08:49:09.304Z,23.30
2023-01-09T08:49:53.628Z,23.31
2023-01-09T08:50:37.864Z,23.30
2023-01-09T08:51:13.418Z,23.31
2023-01-09T08:51:44.848Z,23.31
2023-01-09T08:52:16.320Z,23.29
2023-01-09T08:52:47.745Z,23.30
2023-01-09T08:53:19.168Z,23.31
2023-01-09T08:53:50.635Z,23.32
2023-01-09T08:54:22.032Z,23.33
2023-01-09T08:54:53.492Z,23.31
2023-01-09T08:55:24.892Z,23.32
2023-01-09T08:55:56.379Z,23.32
2023-01-09T08:56:27.882Z,23.31
2023-01-09T08:56:59.323Z,23.31
2023-01-09T08:57:30.750Z,23.32
2023-01-09T08:58:02.190Z,23.29
2023-01-09T08:58:33.658Z,23.29
2023-01-09T08:59:05.134Z,23.28
2023-01-09T08:59:36.553Z,23.30
2023-01-09T09:00:07.976Z,23.28
2023-01-09T09:00:39.428Z,23.29
2023-01-09T09:01:10.846Z,23.28
2023-01-09T09:01:42.328Z,23.29
2023-01-09T09:02:13.829Z,23.28
2023-01-09T09:02:45.259Z,23.28
2023-01-09T09:03:16.719Z,23.26
2023-01-09T09:03:48.221Z,23.30
2023-01-09T09:04:19.623Z,23.32
2023-01-09T09:04:51.067Z,23.28
2023-01-09T09:05:22.453Z,23.28
2023-01-09T09:05:53.923Z,23.28
2023-01-09T09:06:25.298Z,23.32
2023-01-09T09:06:56.709Z,23.29
2023-01-09T09:07:28.129Z,23.29
2023-01-09T09:07:59.596Z,23.28
2023-01-09T09:08:31.020Z,23.29
2023-01-09T09:09:02.454Z,23.28
2023-01-09T09:09:33.881Z,23.30
2023-01-09T09:10:05.338Z,23.28
2023-01-09T09:10:36.804Z,23.29
2023-01-09T09:11:08.284Z,23.29
2023-01-09T09:11:39.665Z,23.28
2023-01-09T09:12:11.104Z,23.31
2023-01-09T09:12:42.562Z,23.31
2023-01-09T09:13:13.980Z,23.30
2023-01-09T09:13:45.402Z,23.29
2023-01-09T09:14:16.843Z,23.28
2023-01-09T09:14:48.263Z,23.28
2023-01-09T09:15:19.720Z,23.28
2023-01-09T09:15:51.262Z,23.28
2023-01-09T09:16:22.815Z,23.29
2023-01-09T09:16:54.291Z,23.29
2023-01-09T09:17:25.725Z,23.29
2023-01-09T09:17:57.132Z,23.28
2023-01-09T09:18:28.505Z,23.32
2023-01-09T09:18:59.980Z,23.30
2023-01-09T09:19:31.367Z,23.28
2023-01-09T09:20:02.817Z,23.29
2023-01-09T09:20:34.323Z,23.28
2023-01-09T09:21:05.741Z,23.31
2023-01-09T09:21:37.233Z,23.28
2023-01-09T09:22:08.639Z,23.27
2023-01-09T09:22:40.112Z,23.29
2023-01-09T09:23:11.528Z,23.30
2023-01-09T09:23:42.943Z,23.30
2023-01-09T09:24:14.362Z,23.28
2023-01-09T09:24:45.780Z,23.27
2023-01-09T09:25:17.207Z,23.28
2023-01-09T09:25:48.691Z,23.27
2023-01-09T09:26:20.122Z,23.27
2023-01-09T09:26:51.560Z,23.27
2023-01-09T09:27:22.993Z,23.27